createdAt,value
2022-11-20T00:01:14.179Z,2.75
2022-11-20T00:03:42.778Z,2.80
2022-11-20T00:06:13.137Z,2.58
2022-11-20T00:08:43.486Z,2.25
2022-11-20T00:11:16.178Z,2.80
2022-11-20T00:13:45.427Z,3.00
2022-11-20T00:16:17.817Z,2.63
2022-11-20T00:18:46.422Z,2.75
2022-11-20T00:21:17.269Z,2.08
2022-11-20T00:23:47.081Z,2.53
2022-11-20T00:26:17.337Z,1.90
2022-11-20T00:28:46.752Z,1.83
2022-11-20T00:31:16.465Z,2.55
2022-11-20T00:33:45.786Z,1.52
2022-11-20T00:36:16.708Z,1.63
2022-11-20T00:38:46.776Z,1.70
2022-11-20T00:41:17.150Z,1.50
2022-11-20T00:43:45.335Z,1.70
2022-11-20T00:46:16.302Z,1.83
2022-11-20T00:48:45.107Z,1.88
2022-11-20T00:51:14.544Z,2.15
2022-11-20T00:53:42.796Z,2.05
2022-11-20T00:56:16.004Z,2.20
2022-11-20T00:58:47.112Z,1.77
2022-11-20T01:01:17.341Z,2.13
2022-11-20T01:03:47.490Z,2.10
2022-11-20T01:06:17.464Z,2.20
2022-11-20T01:08:46.334Z,3.03
2022-11-20T01:11:19.009Z,2.45
2022-11-20T01:13:49.936Z,2.35
2022-11-20T01:16:20.672Z,1.83
2022-11-20T01:18:50.494Z,2.17
2022-11-20T01:21:21.572Z,2.13
2022-11-20T01:23:51.135Z,2.47
2022-11-20T01:26:22.640Z,2.35
2022-11-20T01:28:51.420Z,2.13
2022-11-20T01:31:21.357Z,2.03
2022-11-20T01:33:51.887Z,1.88
2022-11-20T01:36:23.168Z,1.88
2022-11-20T01:38:54.313Z,1.80
2022-11-20T01:41:42.294Z,1.65
2022-11-20T01:44:13.433Z,2.13
2022-11-20T01:46:52.451Z,1.80
2022-11-20T01:49:24.538Z,1.98
2022-11-20T01:51:56.871Z,2.03
2022-11-20T01:54:27.859Z,2.45
2022-11-20T01:56:59.659Z,2.22
2022-11-20T01:59:30.176Z,2.03
2022-11-20T02:01:59.085Z,2.13
2022-11-20T02:04:27.796Z,1.92
2022-11-20T02:07:01.102Z,1.77
2022-11-20T02:09:29.800Z,2.15
2022-11-20T02:12:00.325Z,1.08
2022-11-20T02:14:28.886Z,2.00
2022-11-20T02:16:57.876Z,2.05
2022-11-20T02:19:30.028Z,1.80
2022-11-20T02:22:04.473Z,1.80
2022-11-20T02:24:34.117Z,1.70
2022-11-20T02:27:05.226Z,1.80
2022-11-20T02:29:38.788Z,1.80
2022-11-20T02:32:07.202Z,1.52
2022-11-20T02:34:35.377Z,1.73
2022-11-20T02:37:04.062Z,1.80
2022-11-20T02:39:33.526Z,2.00
2022-11-20T02:42:03.406Z,2.22
2022-11-20T02:44:31.547Z,1.80
2022-11-20T02:46:59.875Z,1.58
2022-11-20T02:49:28.293Z,1.88
2022-11-20T02:51:56.489Z,1.67
2022-11-20T02:54:24.836Z,1.80
2022-11-20T02:56:54.504Z,1.40
2022-11-20T02:59:22.900Z,1.63
2022-11-20T03:01:51.406Z,1.92
2022-11-20T03:04:19.566Z,1.35
2022-11-20T03:06:47.775Z,1.65
2022-11-20T03:09:15.863Z,1.60
2022-11-20T03:11:44.067Z,1.48
2022-11-20T03:14:13.505Z,1.45
2022-11-20T03:16:41.667Z,1.83
2022-11-20T03:19:09.828Z,1.85
2022-11-20T03:21:38.028Z,1.80
2022-11-20T03:24:06.445Z,1.33
2022-11-20T03:26:34.683Z,1.65
2022-11-20T03:29:05.107Z,1.50
2022-11-20T03:31:36.788Z,1.95
2022-11-20T03:34:06.446Z,1.10
2022-11-20T03:36:35.302Z,1.17
2022-11-20T03:39:03.495Z,1.23
2022-11-20T03:41:33.362Z,1.45
2022-11-20T03:44:04.365Z,1.60
2022-11-20T03:46:34.064Z,1.10
2022-11-20T03:49:02.196Z,0.93
2022-11-20T03:51:31.825Z,1.40
2022-11-20T03:54:01.485Z,1.48
2022-11-20T03:56:32.096Z,1.40
2022-11-20T03:59:00.671Z,1.63
2022-11-20T04:01:30.275Z,0.93
2022-11-20T04:04:00.365Z,1.63
2022-11-20T04:06:29.995Z,1.42
2022-11-20T04:08:58.999Z,1.13
2022-11-20T04:11:28.914Z,1.08
2022-11-20T04:13:58.675Z,1.48
2022-11-20T04:16:28.384Z,1.73
2022-11-20T04:18:57.416Z,1.23
2022-11-20T04:21:28.197Z,1.20
2022-11-20T04:23:57.478Z,1.83
2022-11-20T04:26:28.425Z,1.65
2022-11-20T04:28:57.063Z,1.88
2022-11-20T04:31:27.862Z,1.95
2022-11-20T04:33:56.428Z,2.15
2022-11-20T04:36:27.452Z,1.45
2022-11-20T04:38:57.525Z,1.90
2022-11-20T04:41:27.580Z,1.65
2022-11-20T04:44:00.728Z,1.67
2022-11-20T04:46:30.186Z,2.30
2022-11-20T04:48:58.544Z,1.55
2022-11-20T04:51:28.510Z,1.90
2022-11-20T04:53:57.074Z,1.75
2022-11-20T04:56:25.746Z,1.20
2022-11-20T04:58:53.892Z,1.08
2022-11-20T05:01:23.957Z,1.35
2022-11-20T05:03:52.774Z,1.38
2022-11-20T05:06:22.645Z,0.90
2022-11-20T05:08:52.404Z,1.15
2022-11-20T05:11:22.621Z,1.13
2022-11-20T05:13:51.900Z,1.35
2022-11-20T05:16:21.580Z,1.17
2022-11-20T05:18:50.484Z,1.10
2022-11-20T05:21:19.579Z,0.98
2022-11-20T05:23:48.483Z,1.10
2022-11-20T05:26:20.147Z,0.77
2022-11-20T05:28:48.446Z,1.35
2022-11-20T05:31:25.057Z,0.80
2022-11-20T05:33:54.838Z,1.13
2022-11-20T05:36:22.974Z,1.08
2022-11-20T05:38:51.928Z,0.90
2022-11-20T05:41:23.197Z,0.60
2022-11-20T05:43:52.008Z,0.60
2022-11-20T05:46:27.772Z,0.65
2022-11-20T05:48:57.548Z,0.63
2022-11-20T05:51:26.277Z,0.50
2022-11-20T05:53:54.725Z,0.40
2022-11-20T05:56:24.594Z,0.50
2022-11-20T05:58:53.037Z,0.63
2022-11-20T06:01:23.217Z,0.38
2022-11-20T06:03:52.256Z,0.40
2022-11-20T06:06:21.568Z,0.50
2022-11-20T06:08:50.647Z,0.40
2022-11-20T06:11:19.796Z,0.70
2022-11-20T06:13:50.708Z,0.30
2022-11-20T06:16:22.788Z,0.43
2022-11-20T06:18:51.532Z,0.50
2022-11-20T06:21:21.845Z,0.32
2022-11-20T06:23:52.052Z,0.40
2022-11-20T06:26:22.133Z,0.35
2022-11-20T06:28:52.185Z,0.40
2022-11-20T06:31:21.907Z,0.80
2022-11-20T06:33:50.752Z,1.00
2022-11-20T06:36:20.779Z,0.40
2022-11-20T06:38:49.256Z,0.60
2022-11-20T06:41:19.248Z,0.40
2022-11-20T06:43:47.873Z,0.68
2022-11-20T06:46:19.666Z,0.73
2022-11-20T06:48:48.361Z,1.05
2022-11-20T06:51:16.843Z,0.47
2022-11-20T06:53:45.249Z,0.50
2022-11-20T06:56:13.505Z,0.43
2022-11-20T06:58:41.795Z,0.75
2022-11-20T07:01:13.059Z,0.70
2022-11-20T07:03:43.746Z,0.55
2022-11-20T07:06:12.006Z,0.55
2022-11-20T07:08:40.374Z,0.45
2022-11-20T07:11:09.844Z,0.52
2022-11-20T07:13:38.057Z,0.50
2022-11-20T07:16:09.114Z,0.43
2022-11-20T07:18:38.422Z,0.63
2022-11-20T07:21:09.842Z,0.25
2022-11-20T07:23:38.948Z,0.30
2022-11-20T07:26:08.346Z,0.75
2022-11-20T07:28:36.857Z,0.47
2022-11-20T07:31:13.423Z,0.38
2022-11-20T07:33:45.807Z,0.80
2022-11-20T07:36:15.278Z,0.80
2022-11-20T07:38:43.427Z,0.70
2022-11-20T07:41:11.527Z,0.47
2022-11-20T07:43:41.427Z,1.05
2022-11-20T07:46:09.940Z,0.57
2022-11-20T07:48:38.148Z,1.15
2022-11-20T07:51:06.284Z,0.63
2022-11-20T07:53:35.812Z,0.52
2022-11-20T07:56:05.088Z,0.60
2022-11-20T07:58:35.590Z,1.63
2022-11-20T08:01:06.170Z,0.38
2022-11-20T08:03:34.681Z,0.47
2022-11-20T08:06:03.317Z,0.75
2022-11-20T08:08:33.899Z,0.80
2022-11-20T08:11:17.655Z,0.90
2022-11-20T08:14:04.511Z,1.00
2022-11-20T08:16:32.710Z,0.88
2022-11-20T08:19:00.854Z,1.35
2022-11-20T08:21:31.710Z,0.88
2022-11-20T08:24:02.139Z,0.55
2022-11-20T08:26:31.727Z,0.65
2022-11-20T08:29:00.689Z,0.80
2022-11-20T08:31:30.174Z,1.05
2022-11-20T08:33:59.063Z,0.93
2022-11-20T08:36:27.862Z,0.75
2022-11-20T08:38:57.575Z,0.80
2022-11-20T08:41:26.770Z,0.82
2022-11-20T08:43:58.856Z,0.90
2022-11-20T08:46:28.487Z,1.13
2022-11-20T08:48:56.779Z,1.30
2022-11-20T08:51:25.010Z,0.52
2022-11-20T08:53:53.425Z,0.95
2022-11-20T08:56:21.634Z,0.85
2022-11-20T08:59:16.474Z,0.85
2022-11-20T09:01:40.124Z,0.50
2022-11-20T09:04:08.517Z,0.85
2022-11-20T09:06:36.726Z,0.90
2022-11-20T09:09:07.063Z,1.33
2022-11-20T09:11:38.695Z,1.33
2022-11-20T09:14:07.007Z,1.30
2022-11-20T09:16:35.189Z,0.60
2022-11-20T09:19:40.785Z,1.10
2022-11-20T09:24:41.144Z,0.60
2022-11-20T09:27:09.391Z,0.50
2022-11-20T09:29:38.074Z,1.20
2022-11-20T09:32:07.098Z,1.23
2022-11-20T09:34:36.680Z,0.73
2022-11-20T09:37:07.587Z,0.80
2022-11-20T09:39:40.021Z,1.50
2022-11-20T09:42:30.683Z,1.83
2022-11-20T09:45:14.508Z,1.00
2022-11-20T09:48:01.247Z,2.28
2022-11-20T09:50:34.757Z,1.33
2022-11-20T09:53:18.715Z,0.88
2022-11-20T09:55:50.924Z,1.00
2022-11-20T09:58:30.425Z,0.65
2022-11-20T10:01:05.841Z,1.48
2022-11-20T10:03:44.048Z,1.30
2022-11-20T10:06:19.177Z,1.23
2022-11-20T10:08:54.198Z,0.73
2022-11-20T10:11:31.965Z,0.90
2022-11-20T10:14:09.608Z,0.85
2022-11-20T10:16:45.704Z,0.95
2022-11-20T10:19:29.604Z,1.38
2022-11-20T10:22:11.155Z,1.17
2022-11-20T10:24:47.027Z,0.93
2022-11-20T10:27:32.706Z,0.98
2022-11-20T10:30:05.524Z,0.73
2022-11-20T10:32:39.095Z,0.75
2022-11-20T10:35:16.358Z,1.33
2022-11-20T10:37:48.635Z,1.27
2022-11-20T10:40:25.464Z,0.98
2022-11-20T10:42:57.923Z,1.05
2022-11-20T10:45:50.149Z,1.30
2022-11-20T10:48:22.572Z,1.10
2022-11-20T10:51:01.826Z,0.75
2022-11-20T10:53:46.580Z,1.25
2022-11-20T10:56:22.686Z,1.02
2022-11-20T10:59:02.696Z,1.48
2022-11-20T11:01:31.957Z,1.45
2022-11-20T11:04:00.977Z,1.48
2022-11-20T11:06:36.722Z,0.88
2022-11-20T11:09:13.938Z,1.17
2022-11-20T11:11:42.155Z,1.02
2022-11-20T11:14:13.935Z,0.75
2022-11-20T11:16:52.777Z,1.08
2022-11-20T11:19:21.366Z,1.20
2022-11-20T11:21:55.421Z,0.47
2022-11-20T11:24:42.381Z,0.65
2022-11-20T11:27:18.984Z,0.98
2022-11-20T11:29:48.232Z,0.88
2022-11-20T11:32:17.849Z,0.75
2022-11-20T11:34:46.138Z,0.57
2022-11-20T11:37:19.646Z,0.90
2022-11-20T11:40:03.903Z,1.33
2022-11-20T11:42:44.655Z,0.80
2022-11-20T11:45:16.124Z,0.98
2022-11-20T11:47:48.770Z,0.85
2022-11-20T11:50:20.097Z,0.95
2022-11-20T11:52:56.182Z,1.13
2022-11-20T11:55:35.896Z,1.23
2022-11-20T11:58:16.559Z,1.52
2022-11-20T12:00:53.733Z,0.70
2022-11-20T12:03:25.236Z,0.65
2022-11-20T12:05:59.755Z,1.52
2022-11-20T12:08:33.523Z,1.10
2022-11-20T12:13:43.926Z,0.80
2022-11-20T12:16:15.474Z,0.57
2022-11-20T12:18:45.540Z,0.93
2022-11-20T12:21:22.079Z,1.08
2022-11-20T12:24:06.263Z,1.55
2022-11-20T12:26:50.227Z,1.15
2022-11-20T12:29:31.976Z,1.20
2022-11-20T12:32:24.487Z,0.88
2022-11-20T12:35:06.123Z,0.70
2022-11-20T12:37:48.310Z,0.63
2022-11-20T12:40:31.055Z,1.38
2022-11-20T12:43:30.906Z,2.28
2022-11-20T12:46:17.105Z,0.82
2022-11-20T12:48:57.417Z,1.30
2022-11-20T12:51:46.602Z,1.15
2022-11-20T12:54:38.044Z,1.02
2022-11-20T12:57:17.316Z,0.77
2022-11-20T13:00:03.691Z,0.70
2022-11-20T13:02:43.469Z,1.13
2022-11-20T13:05:22.001Z,0.90
2022-11-20T13:07:54.536Z,1.35
2022-11-20T13:10:30.040Z,1.20
2022-11-20T13:13:04.184Z,1.25
2022-11-20T13:15:47.065Z,0.82
2022-11-20T13:18:16.376Z,0.65
2022-11-20T13:20:46.341Z,1.10
2022-11-20T13:23:26.067Z,0.90
2022-11-20T13:26:05.985Z,1.15
2022-11-20T13:28:35.007Z,1.00
2022-11-20T13:31:04.566Z,0.77
2022-11-20T13:33:34.793Z,0.50
2022-11-20T13:36:05.909Z,0.73
2022-11-20T13:38:46.205Z,0.95
2022-11-20T13:41:32.511Z,0.77
2022-11-20T13:44:09.186Z,1.30
2022-11-20T13:46:42.079Z,1.05
2022-11-20T13:49:12.831Z,0.80
2022-11-20T13:51:46.496Z,0.75
2022-11-20T13:54:54.177Z,0.65
2022-11-20T13:57:41.696Z,0.75
2022-11-20T14:00:14.917Z,0.38
2022-11-20T14:02:46.245Z,0.52
2022-11-20T14:05:23.277Z,0.70
2022-11-20T14:07:52.693Z,0.98
2022-11-20T14:10:28.354Z,0.52
2022-11-20T14:12:59.719Z,0.73
2022-11-20T14:15:32.016Z,0.30
2022-11-20T14:18:02.310Z,0.70
2022-11-20T14:20:34.160Z,0.80
2022-11-20T14:23:02.427Z,0.47
2022-11-20T14:25:32.181Z,0.43
2022-11-20T14:28:02.418Z,0.30
2022-11-20T14:30:38.960Z,0.22
2022-11-20T14:33:09.454Z,0.43
2022-11-20T14:35:47.793Z,0.35
2022-11-20T14:38:19.233Z,0.47
2022-11-20T14:40:47.652Z,0.55
2022-11-20T14:43:21.086Z,0.10
2022-11-20T14:46:00.110Z,0.30
2022-11-20T14:48:35.876Z,0.20
2022-11-20T14:51:04.137Z,0.30
2022-11-20T14:53:32.246Z,0.20
2022-11-20T14:56:02.424Z,0.20
2022-11-20T14:58:32.861Z,0.30
2022-11-20T15:01:05.473Z,0.30
2022-11-20T15:03:35.710Z,0.05
2022-11-20T15:06:04.338Z,0.38
2022-11-20T15:08:32.714Z,0.10
2022-11-20T15:11:01.272Z,0.10
2022-11-20T15:13:33.685Z,0.08
2022-11-20T15:16:03.947Z,0.28
2022-11-20T15:18:35.267Z,0.17
2022-11-20T15:21:11.357Z,0.30
2022-11-20T15:23:39.747Z,0.20
2022-11-20T15:26:08.566Z,0.13
2022-11-20T15:28:40.228Z,0.40
2022-11-20T15:31:08.895Z,0.10
2022-11-20T15:33:37.006Z,0.10
2022-11-20T15:36:07.115Z,0.13
2022-11-20T15:38:35.385Z,0.10
2022-11-20T15:41:03.806Z,0.15
2022-11-20T15:43:32.056Z,1.00
2022-11-20T15:46:04.396Z,0.32
2022-11-20T15:48:37.042Z,0.60
2022-11-20T15:51:14.685Z,0.43
2022-11-20T15:53:44.006Z,0.43
2022-11-20T15:56:14.315Z,0.30
2022-11-20T15:58:43.219Z,0.77
2022-11-20T16:01:13.786Z,0.65
2022-11-20T16:03:43.613Z,0.80
2022-11-20T16:06:13.705Z,0.65
2022-11-20T16:08:41.856Z,1.30
2022-11-20T16:11:14.782Z,1.95
2022-11-20T16:14:01.067Z,2.17
2022-11-20T16:16:32.051Z,2.60
2022-11-20T16:19:01.015Z,2.20
2022-11-20T16:21:32.584Z,1.30
2022-11-20T16:24:01.276Z,1.33
2022-11-20T16:26:30.048Z,2.42
2022-11-20T16:28:58.398Z,1.27
2022-11-20T16:31:26.910Z,0.75
2022-11-20T16:33:56.428Z,0.98
2022-11-20T16:36:26.222Z,0.82
2022-11-20T16:38:56.722Z,0.63
2022-11-20T16:41:27.076Z,0.70
2022-11-20T16:43:58.484Z,0.90
2022-11-20T16:46:27.999Z,1.20
2022-11-20T16:48:57.696Z,2.20
2022-11-20T16:51:27.316Z,1.95
2022-11-20T16:53:58.688Z,2.10
2022-11-20T16:56:28.564Z,1.15
2022-11-20T16:58:58.561Z,1.17
2022-11-20T17:01:29.027Z,1.52
2022-11-20T17:03:59.152Z,1.45
2022-11-20T17:06:29.116Z,1.52
2022-11-20T17:08:59.738Z,2.10
2022-11-20T17:11:29.843Z,2.10
2022-11-20T17:14:00.628Z,1.10
2022-11-20T17:16:29.414Z,1.20
2022-11-20T17:19:03.022Z,0.65
2022-11-20T17:21:32.486Z,1.05
2022-11-20T17:24:04.725Z,1.08
2022-11-20T17:26:33.183Z,0.73
2022-11-20T17:29:02.906Z,1.02
2022-11-20T17:31:33.569Z,1.20
2022-11-20T17:34:02.081Z,1.13
2022-11-20T17:36:32.315Z,0.93
2022-11-20T17:39:02.602Z,0.85
2022-11-20T17:41:31.244Z,0.98
2022-11-20T17:44:02.208Z,0.75
2022-11-20T17:46:33.522Z,0.70
2022-11-20T17:49:02.583Z,0.93
2022-11-20T17:51:33.334Z,0.68
2022-11-20T17:54:05.198Z,0.73
2022-11-20T17:56:51.712Z,1.42
2022-11-20T17:59:20.626Z,1.20
2022-11-20T18:01:49.010Z,0.95
2022-11-20T18:04:17.843Z,1.30
2022-11-20T18:06:46.023Z,0.93
2022-11-20T18:09:15.553Z,1.00
2022-11-20T18:11:44.677Z,0.95
2022-11-20T18:14:34.104Z,1.40
2022-11-20T18:17:04.445Z,1.83
2022-11-20T18:19:37.558Z,1.38
2022-11-20T18:22:09.656Z,0.93
2022-11-20T18:24:39.530Z,1.05
2022-11-20T18:27:09.859Z,1.20
2022-11-20T18:29:38.092Z,1.42
2022-11-20T18:32:06.912Z,1.63
2022-11-20T18:34:35.192Z,1.92
2022-11-20T18:37:03.414Z,1.48
2022-11-20T18:39:31.626Z,1.20
2022-11-20T18:42:18.743Z,0.77
2022-11-20T18:44:53.892Z,0.93
2022-11-20T18:47:25.647Z,1.48
2022-11-20T18:49:57.217Z,1.38
2022-11-20T18:52:27.275Z,1.83
2022-11-20T18:54:56.455Z,1.70
2022-11-20T18:57:28.314Z,1.00
2022-11-20T19:00:03.495Z,1.45
2022-11-20T19:02:40.617Z,1.05
2022-11-20T19:05:10.535Z,1.27
2022-11-20T19:07:38.924Z,1.17
2022-11-20T19:10:08.042Z,0.77
2022-11-20T19:12:37.716Z,1.38
2022-11-20T19:15:06.471Z,0.93
2022-11-20T19:17:34.781Z,1.70
2022-11-20T19:20:03.004Z,1.00
2022-11-20T19:22:31.171Z,1.38
2022-11-20T19:24:59.346Z,1.30
2022-11-20T19:27:27.466Z,0.85
2022-11-20T19:30:03.867Z,0.90
2022-11-20T19:32:32.927Z,0.85
2022-11-20T19:35:01.124Z,0.80
2022-11-20T19:37:29.423Z,0.88
2022-11-20T19:39:59.774Z,0.68
2022-11-20T19:42:28.322Z,0.77
2022-11-20T19:44:58.287Z,0.60
2022-11-20T19:47:40.815Z,0.52
2022-11-20T19:50:16.069Z,0.70
2022-11-20T19:52:44.415Z,0.43
2022-11-20T19:55:12.583Z,0.82
2022-11-20T19:57:40.828Z,0.70
2022-11-20T20:00:12.461Z,0.80
2022-11-20T20:02:40.905Z,1.08
2022-11-20T20:05:10.157Z,1.20
2022-11-20T20:07:40.219Z,1.15
2022-11-20T20:10:09.503Z,0.95
2022-11-20T20:12:37.846Z,1.42
2022-11-20T20:15:07.265Z,1.50
2022-11-20T20:17:37.503Z,1.30
2022-11-20T20:20:06.455Z,0.98
2022-11-20T20:22:34.672Z,0.88
2022-11-20T20:25:02.796Z,1.10
2022-11-20T20:27:32.679Z,1.00
2022-11-20T20:30:01.081Z,1.23
2022-11-20T20:32:29.778Z,1.00
2022-11-20T20:34:59.272Z,0.85
2022-11-20T20:37:27.592Z,1.70
2022-11-20T20:39:55.807Z,1.15
2022-11-20T20:42:24.095Z,1.13
2022-11-20T20:45:09.856Z,0.77
2022-11-20T20:47:39.849Z,0.80
2022-11-20T20:50:12.415Z,0.47
2022-11-20T20:52:41.355Z,0.45
2022-11-20T20:55:10.439Z,0.57
2022-11-20T20:57:38.597Z,0.55
2022-11-20T21:00:08.829Z,0.63
2022-11-20T21:02:37.045Z,0.70
2022-11-20T21:05:05.552Z,0.70
2022-11-20T21:07:55.091Z,0.60
2022-11-20T21:10:24.009Z,0.38
2022-11-20T21:12:52.375Z,0.70
2022-11-20T21:15:20.678Z,0.63
2022-11-20T21:17:48.916Z,0.88
2022-11-20T21:20:31.341Z,0.88
2022-11-20T21:23:01.111Z,0.55
2022-11-20T21:25:29.500Z,1.17
2022-11-20T21:27:58.005Z,0.77
2022-11-20T21:30:27.335Z,1.17
2022-11-20T21:32:56.546Z,1.15
2022-11-20T21:35:25.482Z,0.90
2022-11-20T21:37:54.884Z,1.40
2022-11-20T21:40:24.430Z,0.82
2022-11-20T21:42:54.383Z,0.80
2022-11-20T21:45:23.038Z,1.05
2022-11-20T21:47:51.527Z,1.08
2022-11-20T21:50:20.209Z,1.10
2022-11-20T21:52:48.495Z,1.30
2022-11-20T21:55:16.986Z,0.65
2022-11-20T21:57:46.992Z,0.70
2022-11-20T22:00:16.087Z,0.43
2022-11-20T22:02:44.332Z,1.10
2022-11-20T22:05:12.549Z,0.70
2022-11-20T22:07:47.688Z,0.63
2022-11-20T22:10:18.739Z,0.88
2022-11-20T22:12:49.325Z,0.45
2022-11-20T22:15:28.142Z,0.70
2022-11-20T22:18:23.624Z,0.45
2022-11-20T22:20:51.879Z,0.65
2022-11-20T22:23:20.047Z,0.60
2022-11-20T22:25:48.287Z,0.45
2022-11-20T22:28:17.792Z,0.50
2022-11-20T22:30:46.023Z,0.68
2022-11-20T22:33:14.217Z,0.40
2022-11-20T22:35:42.508Z,0.80
2022-11-20T22:38:10.732Z,0.60
2022-11-20T22:40:39.015Z,0.30
2022-11-20T22:43:07.248Z,0.55
2022-11-20T22:45:36.807Z,0.65
2022-11-20T22:48:05.393Z,0.38
2022-11-20T22:50:33.519Z,0.40
2022-11-20T22:53:01.727Z,0.90
2022-11-20T22:55:29.962Z,0.20
2022-11-20T22:57:58.146Z,0.38
2022-11-20T23:00:26.297Z,0.60
2022-11-20T23:02:55.771Z,0.30
2022-11-20T23:05:24.045Z,0.70
2022-11-20T23:07:52.179Z,0.32
2022-11-20T23:10:20.374Z,0.30
2022-11-20T23:12:48.590Z,0.35
2022-11-20T23:15:16.810Z,0.63
2022-11-20T23:17:44.925Z,0.47
2022-11-20T23:20:14.655Z,0.40
2022-11-20T23:23:00.111Z,0.47
2022-11-20T23:25:28.317Z,0.30
2022-11-20T23:27:56.543Z,0.30
2022-11-20T23:30:24.753Z,0.55
2022-11-20T23:32:52.936Z,0.30
2022-11-20T23:35:22.466Z,0.50
2022-11-20T23:37:50.622Z,0.50
2022-11-20T23:40:19.015Z,0.55
2022-11-20T23:43:01.055Z,0.30
2022-11-20T23:45:47.586Z,0.22
2022-11-20T23:48:16.522Z,0.13
2022-11-20T23:50:46.791Z,0.47
2022-11-20T23:53:15.812Z,0.40
2022-11-20T23:55:46.275Z,0.20
2022-11-20T23:58:15.119Z,0.22
